Time;durP1;ratioP1;P1;durP2;ratioP2;P2;SDS_P1;SDS_P2;PMS_P1;PMS_P2;Temp;Humidity;BMP_temperature;BMP_pressure;BME280_temperature;BME280_humidity;BME280_pressure;Samples;Min_cycle;Max_cycle;Signal;HPM_P1;HPM_P2
2022/06/22 00:01:48;;;;;;;1.95;1.75;;;13.50;99.90;;;;;;5095897;28;20061;-80
2022/06/22 00:04:25;;;;;;;115.50;7.40;;;13.50;99.90;;;;;;5093249;28;20039;-80
2022/06/22 00:06:57;;;;;;;33.55;3.80;;;13.50;99.90;;;;;;5096151;28;20031;-80
2022/06/22 00:09:37;;;;;;;220.65;10.38;;;13.40;99.90;;;;;;5095763;28;20596;-80
2022/06/22 00:12:04;;;;;;;303.10;15.65;;;13.40;99.90;;;;;;5094768;28;20067;-80
2022/06/22 00:14:44;;;;;;;296.13;13.40;;;13.20;99.90;;;;;;5095485;28;20044;-80
2022/06/22 00:17:22;;;;;;;348.05;17.17;;;13.10;99.90;;;;;;5095143;28;20043;-80
2022/06/22 00:19:49;;;;;;;509.42;26.02;;;12.90;99.90;;;;;;5095774;28;20208;-80
2022/06/22 00:22:26;;;;;;;243.52;11.50;;;12.80;99.90;;;;;;5095774;28;20043;-80
2022/06/22 00:25:32;;;;;;;151.98;8.02;;;12.80;99.90;;;;;;5091206;28;20065;-80
2022/06/22 00:28:25;;;;;;;224.55;10.70;;;12.70;99.90;;;;;;5060765;28;20044;-80
2022/06/22 00:31:17;;;;;;;44.47;3.67;;;12.50;99.90;;;;;;5110461;28;20032;-80
2022/06/22 00:34:02;;;;;;;71.63;4.90;;;12.40;99.90;;;;;;5078224;28;20391;-80
2022/06/22 00:36:35;;;;;;;222.15;10.82;;;12.20;99.90;;;;;;5076495;28;20040;-80
2022/06/22 00:39:20;;;;;;;37.55;4.13;;;12.10;99.90;;;;;;5095004;28;20108;-81
2022/06/22 00:42:15;;;;;;;19.98;3.10;;;12.10;99.90;;;;;;5095369;28;20042;-79
2022/06/22 00:45:00;;;;;;;67.43;5.18;;;12.10;99.90;;;;;;5079962;28;20040;-80
2022/06/22 00:47:43;;;;;;;27.27;3.90;;;12.10;99.90;;;;;;5093946;28;20109;-80
2022/06/22 00:50:14;;;;;;;82.00;5.85;;;12.10;99.90;;;;;;5111286;28;20078;-79
2022/06/22 00:52:49;;;;;;;361.75;17.40;;;12.20;99.90;;;;;;5078008;28;20034;-80
2022/06/22 00:55:24;;;;;;;237.68;12.55;;;12.10;99.90;;;;;;5094972;28;20036;-79
2022/06/22 00:57:59;;;;;;;196.82;10.57;;;12.00;99.90;;;;;;5094857;28;20067;-80
2022/06/22 01:00:30;;;;;;;15.35;3.13;;;12.00;99.90;;;;;;5094650;28;20043;-80
2022/06/22 01:03:03;;;;;;;85.72;5.85;;;11.90;99.90;;;;;;5094729;28;20375;-80
2022/06/22 01:05:34;;;;;;;134.43;8.63;;;11.90;99.90;;;;;;5094491;28;20488;-79
2022/06/22 01:08:11;;;;;;;303.13;15.68;;;12.00;99.90;;;;;;5094845;28;20487;-80
2022/06/22 01:14:17;;;;;;;256.60;12.98;;;12.10;99.90;;;;;;5084238;28;20075;-80
2022/06/22 01:16:47;;;;;;;453.25;19.83;;;12.00;99.90;;;;;;5092257;28;20038;-80
2022/06/22 01:19:34;;;;;;;128.70;6.95;;;12.10;99.90;;;;;;5094727;28;21031;-79
2022/06/22 01:22:19;;;;;;;177.82;9.40;;;12.00;99.90;;;;;;5075181;28;20070;-79
2022/06/22 01:25:06;;;;;;;207.27;10.40;;;11.90;99.90;;;;;;5094608;28;20067;-80
2022/06/22 01:27:35;;;;;;;30.30;3.00;;;11.90;99.90;;;;;;5094377;28;20100;-80
2022/06/22 01:30:16;;;;;;;47.30;3.63;;;11.80;99.90;;;;;;5098456;28;20054;-80
2022/06/22 01:32:43;;;;;;;16.15;1.80;;;11.70;99.90;;;;;;5094488;28;20040;-79
2022/06/22 01:35:26;;;;;;;21.27;2.17;;;11.60;99.90;;;;;;5094488;28;20468;-80
2022/06/22 01:37:52;;;;;;;7.97;1.50;;;11.60;99.90;;;;;;5094119;28;20035;-80
2022/06/22 01:40:22;;;;;;;18.23;2.70;;;11.50;99.90;;;;;;5076921;28;20050;-79
2022/06/22 01:42:50;;;;;;;49.70;3.40;;;11.50;99.90;;;;;;5093789;28;20040;-80
2022/06/22 01:45:38;;;;;;;24.27;3.17;;;11.50;99.90;;;;;;5077064;28;20505;-81
2022/06/22 01:48:15;;;;;;;314.67;12.93;;;11.50;99.90;;;;;;5092525;28;20038;-80
2022/06/22 01:50:53;;;;;;;179.93;9.85;;;11.50;99.90;;;;;;5093756;28;20089;-80
2022/06/22 01:53:38;;;;;;;176.40;9.57;;;11.80;99.90;;;;;;5093635;28;20036;-79
2022/06/22 01:56:23;;;;;;;193.80;10.27;;;11.40;99.90;;;;;;5093068;28;20445;-81
2022/06/22 01:59:09;;;;;;;264.38;13.23;;;11.40;99.90;;;;;;5127985;27;20032;-79
2022/06/22 02:01:56;;;;;;;104.57;7.03;;;11.40;99.90;;;;;;5092500;28;20452;-80
2022/06/22 02:05:06;;;;;;;262.02;15.15;;;11.30;99.90;;;;;;5093523;28;20075;-79
2022/06/22 02:08:01;;;;;;;63.75;6.75;;;11.30;99.90;;;;;;5085021;28;20407;-79
2022/06/22 02:10:37;;;;;;;18.10;5.30;;;11.20;99.90;;;;;;5100355;28;20048;-78
2022/06/22 02:13:21;;;;;;;78.57;7.60;;;11.30;99.90;;;;;;5093505;28;20122;-79
2022/06/22 02:16:24;;;;;;;28.42;5.65;;;11.20;99.90;;;;;;5100765;28;20471;-80
2022/06/22 02:18:56;;;;;;;10.65;4.13;;;11.10;99.90;;;;;;5100170;28;20048;-80
2022/06/22 02:21:43;;;;;;;5.63;4.07;;;11.50;99.90;;;;;;5099763;28;20384;-79
2022/06/22 02:24:21;;;;;;;4.13;3.58;;;11.10;99.90;;;;;;5093550;28;20032;-80
2022/06/22 02:26:55;;;;;;;4.40;3.60;;;11.10;99.90;;;;;;5093193;28;20105;-80
2022/06/22 02:29:25;;;;;;;14.30;3.90;;;11.20;99.90;;;;;;5093322;28;20052;-80
2022/06/22 02:31:54;;;;;;;21.25;3.95;;;11.20;99.90;;;;;;5074915;28;20074;-80
2022/06/22 02:34:20;;;;;;;195.70;10.32;;;11.20;99.90;;;;;;5093502;28;20036;-79
2022/06/22 02:36:49;;;;;;;32.97;4.88;;;11.20;99.90;;;;;;5093084;28;20036;-80
2022/06/22 02:39:16;;;;;;;189.18;9.18;;;11.20;99.90;;;;;;5079385;28;20383;-81
2022/06/22 02:44:44;;;;;;;80.22;5.57;;;11.20;99.90;;;;;;4992576;28;20121;-80
2022/06/22 02:47:16;;;;;;;;;;;11.10;99.90;;;;;;5056900;28;20503;-79
2022/06/22 02:49:52;;;;;;;52.15;5.32;;;11.10;99.90;;;;;;5127220;28;19915;-80
2022/06/22 02:52:19;;;;;;;155.23;8.82;;;11.00;99.90;;;;;;5126928;27;20047;-79
2022/06/22 02:54:59;;;;;;;202.65;10.43;;;11.00;99.90;;;;;;5097576;28;20036;-79
2022/06/22 02:57:52;;;;;;;130.63;8.23;;;10.90;99.90;;;;;;5097758;28;20048;-80
2022/06/22 03:00:21;;;;;;;149.93;8.65;;;10.90;99.90;;;;;;5097664;28;20044;-80
2022/06/22 03:02:50;;;;;;;230.93;12.63;;;10.80;99.90;;;;;;5078136;28;20049;-80
2022/06/22 03:05:18;;;;;;;190.95;10.73;;;11.10;99.90;;;;;;5097377;28;20043;-80
2022/06/22 03:07:50;;;;;;;168.73;11.00;;;10.60;99.90;;;;;;5097033;28;20047;-80
2022/06/22 03:10:42;;;;;;;168.13;10.15;;;10.60;99.90;;;;;;5097330;28;20063;-79
2022/06/22 03:13:13;;;;;;;153.43;10.25;;;10.40;99.90;;;;;;5095148;28;20073;-80
2022/06/22 03:15:39;;;;;;;205.80;12.10;;;10.40;99.90;;;;;;5097046;28;20031;-80
2022/06/22 03:18:08;;;;;;;114.38;9.55;;;10.40;99.90;;;;;;5096880;28;20046;-80
2022/06/22 03:21:07;;;;;;;207.57;12.70;;;10.40;99.90;;;;;;5096756;28;20039;-79
2022/06/22 03:23:52;;;;;;;131.25;9.68;;;10.30;99.90;;;;;;5095874;28;20043;-79
2022/06/22 03:26:29;;;;;;;140.10;9.43;;;10.20;99.90;;;;;;5130421;27;20238;-80
2022/06/22 03:29:03;;;;;;;51.25;6.80;;;10.20;99.90;;;;;;5096705;28;20092;-81
2022/06/22 03:31:40;;;;;;;59.55;7.35;;;10.20;99.90;;;;;;5095534;28;20047;-80
2022/06/22 03:34:14;;;;;;;26.58;6.65;;;10.30;99.90;;;;;;5095047;28;20114;-80
2022/06/22 03:36:57;;;;;;;31.05;6.90;;;10.30;99.90;;;;;;5094566;28;20376;-80
2022/06/22 03:39:28;;;;;;;139.23;10.05;;;10.40;99.90;;;;;;5096761;28;20085;-80
2022/06/22 03:42:10;;;;;;;183.63;12.20;;;10.40;99.90;;;;;;5096648;28;20039;-80
2022/06/22 03:44:43;;;;;;;270.45;15.05;;;10.40;99.90;;;;;;5096312;28;20114;-80
2022/06/22 03:47:24;;;;;;;143.63;12.57;;;10.40;99.90;;;;;;5079563;28;20039;-81
2022/06/22 03:50:15;;;;;;;136.30;12.88;;;10.50;99.90;;;;;;5096001;28;20044;-80
2022/06/22 03:53:01;;;;;;;149.95;12.73;;;10.40;99.90;;;;;;5094802;28;20455;-81
2022/06/22 03:55:35;;;;;;;59.25;11.88;;;10.50;99.90;;;;;;5096282;28;20505;-81
2022/06/22 03:58:03;;;;;;;78.80;11.98;;;10.50;99.90;;;;;;5096125;28;20032;-80
2022/06/22 04:00:31;;;;;;;71.38;11.85;;;10.60;99.90;;;;;;5096354;28;20575;-80
2022/06/22 04:02:57;;;;;;;36.92;10.15;;;10.60;99.90;;;;;;5096164;28;20051;-80
2022/06/22 04:05:38;;;;;;;;;;;10.60;99.90;;;;;;5096252;28;20071;-80
2022/06/22 04:08:04;;;;;;;38.17;8.88;;;10.60;99.90;;;;;;5094511;28;19922;-81
2022/06/22 04:10:41;;;;;;;23.90;8.18;;;10.60;99.90;;;;;;5078246;28;20039;-80
2022/06/22 04:13:44;;;;;;;22.30;7.32;;;10.60;99.90;;;;;;5095528;28;20088;-80
2022/06/22 04:16:15;;;;;;;15.95;7.05;;;10.70;99.90;;;;;;5062343;28;20146;-80
2022/06/22 04:18:55;;;;;;;12.63;7.57;;;10.70;99.90;;;;;;5079878;28;20078;-79
2022/06/22 04:21:31;;;;;;;12.07;7.35;;;10.80;99.90;;;;;;5097447;28;20031;-79
2022/06/22 04:24:02;;;;;;;10.20;6.75;;;10.90;99.90;;;;;;5096799;28;20036;-80
2022/06/22 04:26:36;;;;;;;10.45;7.40;;;11.00;99.90;;;;;;5097492;28;20233;-80
2022/06/22 04:29:10;;;;;;;8.18;7.03;;;11.10;99.90;;;;;;5097149;28;20052;-78
2022/06/22 04:31:43;;;;;;;8.00;6.95;;;11.20;99.90;;;;;;5097086;28;20040;-80
2022/06/22 04:34:21;;;;;;;7.80;6.97;;;11.30;99.90;;;;;;5097406;28;20044;-80
2022/06/22 04:36:52;;;;;;;8.35;6.95;;;11.40;99.90;;;;;;5097285;28;20403;-81
2022/06/22 04:39:36;;;;;;;8.80;7.25;;;11.50;99.90;;;;;;5097045;28;20054;-80
2022/06/22 04:42:04;;;;;;;8.15;6.88;;;11.50;99.90;;;;;;5096975;28;20054;-81
2022/06/22 04:44:39;;;;;;;8.05;6.93;;;11.70;99.90;;;;;;5080747;28;20047;-81
2022/06/22 04:47:25;;;;;;;8.85;7.28;;;11.80;99.90;;;;;;5097298;28;20158;-81
2022/06/22 04:49:55;;;;;;;10.63;8.73;;;11.90;99.90;;;;;;5093415;28;20038;-81
2022/06/22 04:52:42;;;;;;;11.95;9.35;;;12.00;99.90;;;;;;5076020;28;20039;-80
2022/06/22 04:55:17;;;;;;;;;;;12.10;99.90;;;;;;5096000;28;20066;-81
2022/06/22 04:57:44;;;;;;;12.88;8.80;;;12.20;99.90;;;;;;5095221;28;19922;-80
2022/06/22 05:00:15;;;;;;;14.02;9.95;;;12.20;99.90;;;;;;5095114;28;20036;-81
2022/06/22 05:02:43;;;;;;;12.98;10.40;;;12.30;99.90;;;;;;5093070;28;20048;-80
2022/06/22 05:05:27;;;;;;;17.10;11.13;;;12.40;99.90;;;;;;5078472;28;20127;-80
2022/06/22 05:07:56;;;;;;;15.52;10.35;;;12.60;99.90;;;;;;5079263;28;20039;-80
2022/06/22 05:10:30;;;;;;;14.23;10.65;;;12.60;99.90;;;;;;5085106;28;20074;-80
2022/06/22 05:12:59;;;;;;;17.63;10.90;;;12.80;99.90;;;;;;5095330;28;20493;-81
2022/06/22 05:15:34;;;;;;;18.95;10.45;;;12.90;99.90;;;;;;5094931;28;20035;-80
2022/06/22 05:18:01;;;;;;;15.48;10.57;;;13.00;99.90;;;;;;5077431;28;20044;-81
2022/06/22 05:20:36;;;;;;;14.77;10.68;;;13.10;99.90;;;;;;5094956;28;20047;-82
2022/06/22 05:23:06;;;;;;;15.07;10.82;;;13.20;99.90;;;;;;5074496;28;20043;-81
2022/06/22 05:25:32;;;;;;;13.30;10.48;;;13.30;99.90;;;;;;5099514;28;20395;-80
2022/06/22 05:28:17;;;;;;;;;;;13.50;99.90;;;;;;5061963;28;20044;-80
2022/06/22 05:30:48;;;;;;;14.88;10.40;;;13.60;99.90;;;;;;5077163;28;19965;-81
2022/06/22 05:33:18;;;;;;;13.30;10.27;;;13.80;99.90;;;;;;5093081;28;20150;-81
2022/06/22 05:35:58;;;;;;;15.40;10.45;;;14.00;99.90;;;;;;5094891;28;20470;-81
2022/06/22 05:38:26;;;;;;;14.38;10.55;;;14.30;99.90;;;;;;5094789;28;20046;-80
2022/06/22 05:40:53;;;;;;;16.35;10.13;;;14.40;99.90;;;;;;5094225;28;20035;-81
2022/06/22 05:43:21;;;;;;;16.80;10.65;;;14.70;99.90;;;;;;5094590;28;20039;-80
2022/06/22 05:45:54;;;;;;;16.42;10.48;;;14.90;99.90;;;;;;5089689;28;20039;-80
2022/06/22 05:48:23;;;;;;;14.20;9.25;;;15.10;99.90;;;;;;5101166;28;20043;-81
2022/06/22 05:50:59;;;;;;;16.45;10.73;;;15.30;99.90;;;;;;5077329;28;20040;-81
2022/06/22 05:53:37;;;;;;;18.70;9.57;;;15.50;99.90;;;;;;5094779;28;20046;-81
2022/06/22 05:56:21;;;;;;;15.57;10.50;;;15.60;99.90;;;;;;5091870;28;20046;-81
2022/06/22 05:58:57;;;;;;;14.48;9.85;;;15.80;99.90;;;;;;5093936;28;20031;-81
2022/06/22 06:01:43;;;;;;;13.27;10.00;;;16.00;99.90;;;;;;5077446;28;20046;-81
2022/06/22 06:04:26;;;;;;;12.83;9.23;;;16.10;99.90;;;;;;5127512;27;20040;-81
2022/06/22 06:06:55;;;;;;;11.55;8.55;;;16.30;99.90;;;;;;5075021;28;20091;-81
2022/06/22 06:09:25;;;;;;;12.70;9.00;;;16.80;99.90;;;;;;5094319;28;20483;-81
2022/06/22 06:12:01;;;;;;;11.60;7.85;;;17.40;99.90;;;;;;5074935;28;20084;-80
2022/06/22 06:14:33;;;;;;;10.68;7.38;;;18.00;99.90;;;;;;5089754;28;20027;-81
2022/06/22 06:17:05;;;;;;;10.90;6.53;;;18.30;99.90;;;;;;5077151;28;20112;-82
2022/06/22 06:19:35;;;;;;;10.20;7.03;;;18.70;99.90;;;;;;5075302;28;20037;-80
2022/06/22 06:22:04;;;;;;;9.07;6.20;;;19.00;99.90;;;;;;5096103;28;20436;-81
2022/06/22 06:24:36;;;;;;;9.52;6.80;;;19.10;99.90;;;;;;5099097;28;20583;-81
2022/06/22 06:30:15;;;;;;;9.75;5.95;;;19.50;99.90;;;;;;5087983;28;20047;-82
2022/06/22 06:32:59;;;;;;;8.52;6.45;;;19.80;99.90;;;;;;5093937;28;20074;-81
2022/06/22 06:35:35;;;;;;;11.13;6.00;;;20.10;99.90;;;;;;5093450;28;20038;-81
2022/06/22 06:38:13;;;;;;;9.93;5.43;;;20.30;99.90;;;;;;5125980;28;20487;-81
2022/06/22 06:41:03;;;;;;;10.43;5.43;;;20.30;99.90;;;;;;5093931;28;20040;-81
2022/06/22 06:43:42;;;;;;;8.43;5.47;;;20.40;99.90;;;;;;5091817;28;20049;-80
2022/06/22 06:46:15;;;;;;;8.80;5.20;;;20.30;99.90;;;;;;5090977;28;20046;-81
2022/06/22 06:48:49;;;;;;;9.68;4.60;;;20.50;99.90;;;;;;5093821;28;20091;-81
2022/06/22 06:51:18;;;;;;;8.80;4.80;;;20.70;99.90;;;;;;5092056;28;20071;-81
2022/06/22 06:53:59;;;;;;;8.30;4.40;;;20.90;99.90;;;;;;5094308;28;20047;-79
2022/06/22 06:56:33;;;;;;;10.25;4.03;;;21.10;99.90;;;;;;5094247;28;20036;-79
2022/06/22 06:59:07;;;;;;;7.10;3.88;;;21.20;99.90;;;;;;5094214;28;20119;-80
2022/06/22 07:01:36;;;;;;;7.93;3.88;;;21.40;99.90;;;;;;5092837;28;20046;-80
2022/06/22 07:04:07;;;;;;;9.38;3.45;;;21.50;99.90;;;;;;5077066;28;20042;-78
2022/06/22 07:06:33;;;;;;;5.88;3.05;;;21.50;99.90;;;;;;5093796;28;20187;-80
2022/06/22 07:09:31;;;;;;;7.53;2.88;;;21.30;99.90;;;;;;5093807;28;20043;-80
2022/06/22 07:12:17;;;;;;;;;;;21.50;99.90;;;;;;5093822;28;20032;-81
2022/06/22 07:14:44;;;;;;;7.30;2.83;;;21.60;99.90;;;;;;5109049;28;19968;-80
2022/06/22 07:17:15;;;;;;;7.97;2.78;;;21.70;99.90;;;;;;5092758;28;20502;-80
2022/06/22 07:19:47;;;;;;;10.13;3.45;;;21.90;99.90;;;;;;5093095;28;20047;-80
2022/06/22 07:22:32;;;;;;;7.25;2.63;;;22.00;99.90;;;;;;5092604;28;20044;-79
2022/06/22 07:25:47;;;;;;;5.93;2.50;;;22.10;99.90;;;;;;5092406;28;20044;-79
2022/06/22 07:28:25;;;;;;;6.22;2.20;;;22.00;99.90;;;;;;5057988;28;20056;-79
2022/06/22 07:30:59;;;;;;;5.90;2.28;;;22.10;99.90;;;;;;5092663;28;20032;-80
2022/06/22 07:33:44;;;;;;;7.13;2.63;;;22.30;99.90;;;;;;5087845;28;20043;-80
2022/06/22 07:36:44;;;;;;;5.95;2.42;;;22.40;99.90;;;;;;5091299;28;20043;-81
2022/06/22 07:39:21;;;;;;;4.97;1.88;;;22.50;99.90;;;;;;5032910;28;20048;-81
2022/06/22 07:41:46;;;;;;;4.47;2.40;;;22.20;99.90;;;;;;5100864;28;20063;-81
2022/06/22 07:44:20;;;;;;;;;;;22.40;99.90;;;;;;5095418;28;20036;-81
2022/06/22 07:46:50;;;;;;;5.78;2.08;;;22.30;99.90;;;;;;5095053;28;19942;-81
2022/06/22 07:49:29;;;;;;;5.10;2.00;;;22.60;99.90;;;;;;5099258;28;20043;-82
2022/06/22 07:51:58;;;;;;;6.70;2.50;;;22.70;99.90;;;;;;5090388;28;20047;-80
2022/06/22 07:54:40;;;;;;;6.32;2.60;;;22.80;99.90;;;;;;5094625;28;20044;-81
2022/06/22 07:57:16;;;;;;;3.85;1.77;;;22.90;99.90;;;;;;5102524;28;20036;-81
2022/06/22 07:59:53;;;;;;;6.05;2.10;;;23.10;99.70;;;;;;5094850;28;20040;-81
2022/06/22 08:02:23;;;;;;;5.97;2.15;;;23.10;99.90;;;;;;5077868;28;20131;-81
2022/06/22 08:04:57;;;;;;;4.55;1.70;;;23.30;99.90;;;;;;5094265;28;20112;-81
2022/06/22 08:07:38;;;;;;;6.55;2.20;;;23.50;99.80;;;;;;5095017;28;20044;-81
2022/06/22 08:10:17;;;;;;;6.05;2.08;;;23.60;99.40;;;;;;5102832;28;20089;-82
2022/06/22 08:12:49;;;;;;;4.70;1.90;;;23.90;98.90;;;;;;5093974;28;20068;-79
2022/06/22 08:15:17;;;;;;;5.20;2.15;;;24.00;98.30;;;;;;5095321;28;20115;-79
2022/06/22 08:17:48;;;;;;;9.02;2.30;;;24.20;98.20;;;;;;5098560;28;20040;-78
2022/06/22 08:20:18;;;;;;;6.28;2.15;;;24.10;97.60;;;;;;5094817;28;20051;-77
2022/06/22 08:22:46;;;;;;;4.80;2.08;;;24.30;98.30;;;;;;5093894;28;20047;-77
2022/06/22 08:25:14;;;;;;;5.05;2.03;;;24.30;98.00;;;;;;5095069;28;20044;-80
2022/06/22 08:27:40;;;;;;;5.70;1.95;;;24.50;98.30;;;;;;5081892;28;20056;-78
2022/06/22 08:30:09;;;;;;;4.35;2.00;;;24.80;99.10;;;;;;5097316;28;20042;-79
2022/06/22 08:33:01;;;;;;;6.10;2.00;;;24.90;97.80;;;;;;5096527;28;20036;-79
2022/06/22 08:35:34;;;;;;;3.80;1.92;;;25.20;98.00;;;;;;5083102;28;20560;-80
2022/06/22 08:38:02;;;;;;;6.55;2.20;;;25.20;97.60;;;;;;5096436;28;20429;-81
2022/06/22 08:40:38;;;;;;;7.70;2.33;;;25.40;97.70;;;;;;5094317;28;20096;-79
2022/06/22 08:43:19;;;;;;;7.40;3.20;;;25.50;97.60;;;;;;5096339;28;20092;-80
2022/06/22 08:46:06;;;;;;;8.88;2.42;;;25.50;97.70;;;;;;5096926;28;20429;-79
2022/06/22 08:49:01;;;;;;;7.47;3.17;;;25.60;97.90;;;;;;5094898;28;20049;-79
2022/06/22 08:51:39;;;;;;;6.00;2.47;;;25.50;97.10;;;;;;5094771;28;20042;-79
2022/06/22 08:54:22;;;;;;;4.50;2.53;;;25.70;97.60;;;;;;5096316;28;20471;-79
2022/06/22 08:57:12;;;;;;;4.80;2.50;;;25.80;97.70;;;;;;5096590;28;20453;-81
2022/06/22 09:00:05;;;;;;;7.70;2.70;;;25.80;96.80;;;;;;5096080;28;20046;-80
2022/06/22 09:02:49;;;;;;;5.93;2.80;;;25.60;96.60;;;;;;5093186;28;20127;-80
2022/06/22 09:05:33;;;;;;;6.20;2.72;;;25.90;96.70;;;;;;5076362;28;20036;-78
2022/06/22 09:08:19;;;;;;;6.72;2.85;;;25.70;96.40;;;;;;5086346;28;20157;-79
2022/06/22 09:10:56;;;;;;;6.60;2.90;;;25.90;96.50;;;;;;5110777;28;20038;-80
2022/06/22 09:13:40;;;;;;;8.82;2.95;;;25.90;95.80;;;;;;5092875;28;20543;-79
2022/06/22 09:16:21;;;;;;;4.78;2.33;;;26.00;95.20;;;;;;5093483;28;20428;-79
2022/06/22 09:19:26;;;;;;;6.07;2.65;;;26.40;96.50;;;;;;5075965;28;20035;-79
2022/06/22 09:22:00;;;;;;;6.55;3.17;;;26.70;95.70;;;;;;5093434;28;20407;-79
2022/06/22 09:24:39;;;;;;;5.30;2.75;;;26.70;95.80;;;;;;5094573;28;20039;-79
2022/06/22 09:27:18;;;;;;;13.07;2.90;;;26.40;95.60;;;;;;5093434;28;20032;-78
2022/06/22 09:30:00;;;;;;;4.88;2.33;;;26.60;96.10;;;;;;5092982;28;20060;-78
2022/06/22 09:32:38;;;;;;;5.15;2.20;;;26.90;95.20;;;;;;5093771;28;20040;-79
2022/06/22 09:35:15;;;;;;;6.30;2.75;;;27.20;95.20;;;;;;5094478;28;20498;-80
2022/06/22 09:38:09;;;;;;;6.25;2.53;;;27.30;94.90;;;;;;5094617;28;20038;-79
2022/06/22 09:40:58;;;;;;;5.43;2.95;;;27.30;94.70;;;;;;5094310;28;20031;-80
2022/06/22 09:43:27;;;;;;;7.35;2.83;;;27.40;94.80;;;;;;5093119;28;20044;-79
2022/06/22 09:46:33;;;;;;;7.18;3.28;;;27.50;95.50;;;;;;5094552;28;20043;-80
2022/06/22 09:49:10;;;;;;;4.97;2.70;;;27.20;94.60;;;;;;5075383;28;20040;-79
2022/06/22 09:52:00;;;;;;;4.78;2.30;;;27.40;94.20;;;;;;5094313;28;20039;-82
2022/06/22 09:57:46;;;;;;;5.10;2.35;;;28.10;94.10;;;;;;5094889;28;20085;-81
2022/06/22 10:00:18;;;;;;;6.13;2.22;;;28.10;94.50;;;;;;5104693;28;20035;-81
2022/06/22 10:03:17;;;;;;;7.10;2.70;;;28.10;94.60;;;;;;5081950;28;20072;-81
2022/06/22 10:05:54;;;;;;;6.68;2.78;;;27.90;93.90;;;;;;5093976;28;20062;-82
2022/06/22 10:08:57;;;;;;;8.55;3.20;;;27.40;94.10;;;;;;5091104;28;20044;-82
2022/06/22 10:11:59;;;;;;;5.75;3.15;;;27.80;93.60;;;;;;5089951;28;20604;-81
2022/06/22 10:14:29;;;;;;;6.80;2.63;;;27.70;93.60;;;;;;5073751;28;20043;-81
2022/06/22 10:17:22;;;;;;;5.50;2.65;;;28.20;94.30;;;;;;5093932;28;20043;-83
2022/06/22 10:19:53;;;;;;;6.07;2.55;;;28.10;94.30;;;;;;5092349;28;20035;-82
2022/06/22 10:22:48;;;;;;;5.88;2.65;;;28.00;93.90;;;;;;5093056;28;20036;-82
2022/06/22 10:25:41;;;;;;;5.70;2.67;;;28.20;93.40;;;;;;5090258;28;20476;-81
2022/06/22 10:28:28;;;;;;;6.32;2.30;;;28.20;93.00;;;;;;5092421;28;20078;-81
2022/06/22 10:31:35;;;;;;;6.72;2.65;;;28.50;94.40;;;;;;5093811;28;20434;-81
2022/06/22 10:34:19;;;;;;;9.70;3.03;;;28.90;93.30;;;;;;4992945;28;20041;-81
2022/06/22 10:36:48;;;;;;;6.30;3.17;;;28.60;92.80;;;;;;5121030;28;20046;-82
2022/06/22 10:39:25;;;;;;;6.95;2.80;;;28.60;93.10;;;;;;5075985;28;20031;-82
2022/06/22 10:45:15;;;;;;;7.50;2.83;;;29.10;93.60;;;;;;5091124;28;20067;-82
2022/06/22 10:47:56;;;;;;;6.30;2.65;;;29.10;92.90;;;;;;5092199;28;20032;-83
2022/06/22 10:50:40;;;;;;;4.95;2.60;;;29.10;92.90;;;;;;5089231;28;20067;-82
2022/06/22 10:53:40;;;;;;;4.95;3.30;;;28.90;92.40;;;;;;5092888;28;20078;-82
2022/06/22 10:56:35;;;;;;;8.48;3.33;;;28.20;92.00;;;;;;5090995;28;20039;-82
2022/06/22 10:59:33;;;;;;;4.88;2.80;;;28.10;92.40;;;;;;5088726;28;20023;-80
2022/06/22 11:02:46;;;;;;;6.32;2.90;;;28.40;92.10;;;;;;5108194;28;20046;-82
2022/06/22 11:05:33;;;;;;;5.28;2.83;;;28.80;92.30;;;;;;5091351;28;20046;-81
2022/06/22 11:08:12;;;;;;;5.93;3.00;;;28.80;92.80;;;;;;5093091;28;20379;-81
2022/06/22 11:10:43;;;;;;;6.68;3.30;;;28.90;91.90;;;;;;5092144;28;20505;-81
2022/06/22 11:13:19;;;;;;;6.50;3.33;;;28.70;92.00;;;;;;5092021;28;20071;-81
2022/06/22 11:16:29;;;;;;;8.73;3.17;;;28.80;91.90;;;;;;5076561;28;20135;-82
2022/06/22 11:19:07;;;;;;;7.28;2.85;;;29.20;93.30;;;;;;5093872;28;20084;-81
2022/06/22 11:22:07;;;;;;;6.65;2.90;;;29.50;92.60;;;;;;5094048;28;20054;-80
2022/06/22 11:25:02;;;;;;;6.20;3.35;;;29.70;92.80;;;;;;5095163;28;20089;-82
2022/06/22 11:33:24;;;;;;;6.00;2.80;;;29.60;92.20;;;;;;5093955;28;20096;-81
2022/06/22 11:36:22;;;;;;;7.45;3.35;;;30.10;93.00;;;;;;5097004;28;20122;-81
2022/06/22 11:39:17;;;;;;;8.40;3.40;;;30.30;92.70;;;;;;5079652;28;20100;-82
2022/06/22 11:41:55;;;;;;;5.38;3.20;;;30.60;92.50;;;;;;5096169;28;20074;-81
2022/06/22 11:48:14;;;;;;;10.70;3.55;;;30.30;92.20;;;;;;5095624;28;20503;-81
2022/06/22 11:51:11;;;;;;;7.28;3.08;;;30.20;92.00;;;;;;5095026;28;20032;-80
2022/06/22 11:54:02;;;;;;;7.90;3.00;;;30.00;91.90;;;;;;5078496;28;20088;-82
2022/06/22 11:56:28;;;;;;;7.15;3.42;;;30.40;92.90;;;;;;5091831;28;20114;-82
2022/06/22 11:58:59;;;;;;;5.93;2.92;;;30.20;92.80;;;;;;5096593;28;20164;-81
2022/06/22 12:01:54;;;;;;;7.60;2.38;;;30.40;92.90;;;;;;5095171;28;20095;-80
2022/06/22 12:04:25;;;;;;;7.03;3.22;;;30.20;91.90;;;;;;5053076;28;20055;-81
2022/06/22 12:07:13;;;;;;;7.25;2.90;;;30.00;91.90;;;;;;5096060;28;20040;-81
2022/06/22 12:10:11;;;;;;;5.72;2.90;;;30.00;91.60;;;;;;5095966;28;20464;-80
2022/06/22 12:13:00;;;;;;;9.25;3.53;;;30.00;91.50;;;;;;5094377;28;20032;-81
2022/06/22 12:15:44;;;;;;;6.93;3.35;;;29.80;92.10;;;;;;5127116;27;20040;-80
2022/06/22 12:18:22;;;;;;;8.30;3.20;;;29.90;91.10;;;;;;5093954;28;20040;-81
2022/06/22 12:20:50;;;;;;;5.60;3.00;;;29.70;92.00;;;;;;5095012;28;20476;-81
2022/06/22 12:23:44;;;;;;;6.90;3.60;;;29.90;91.60;;;;;;5077655;28;20058;-81
2022/06/22 12:26:35;;;;;;;8.02;3.53;;;29.40;91.10;;;;;;5093841;28;20066;-81
2022/06/22 12:29:25;;;;;;;5.57;3.05;;;29.20;91.60;;;;;;5075879;28;20135;-81
2022/06/22 12:32:01;;;;;;;7.53;3.60;;;28.90;91.70;;;;;;5071811;28;20090;-81
2022/06/22 12:34:40;;;;;;;9.27;3.47;;;28.60;91.40;;;;;;5091178;28;20050;-80
2022/06/22 12:37:13;;;;;;;7.22;3.22;;;28.70;92.20;;;;;;5093339;28;20075;-81
2022/06/22 12:40:20;;;;;;;7.75;3.63;;;28.90;92.10;;;;;;5094139;28;20063;-81
2022/06/22 12:43:01;;;;;;;4.90;2.67;;;29.30;92.20;;;;;;5045362;28;20040;-81
2022/06/22 12:45:30;;;;;;;5.60;2.88;;;29.60;92.20;;;;;;5093540;28;20039;-80
2022/06/22 12:48:33;;;;;;;7.05;3.10;;;29.90;92.00;;;;;;5077580;28;20089;-81
2022/06/22 12:51:07;;;;;;;6.03;2.60;;;30.10;92.50;;;;;;5093855;28;20067;-81
2022/06/22 12:53:38;;;;;;;4.55;2.65;;;30.20;92.10;;;;;;5076310;28;20040;-80
2022/06/22 12:56:15;;;;;;;7.18;2.70;;;29.60;91.90;;;;;;5094213;28;20495;-81
2022/06/22 12:59:00;;;;;;;5.63;2.70;;;29.50;92.30;;;;;;5093929;28;20455;-80
2022/06/22 13:01:26;;;;;;;4.82;2.65;;;29.90;91.70;;;;;;5093366;28;20548;-81
2022/06/22 13:04:07;;;;;;;11.70;2.70;;;30.10;92.20;;;;;;5093781;28;20046;-81
2022/06/22 13:06:37;;;;;;;5.35;2.75;;;30.50;92.10;;;;;;5076136;28;20040;-81
2022/06/22 13:09:05;;;;;;;5.97;2.60;;;30.20;91.80;;;;;;5093747;28;20035;-80
2022/06/22 13:11:31;;;;;;;5.50;2.78;;;30.60;91.60;;;;;;5092975;28;20047;-81
2022/06/22 13:14:20;;;;;;;6.22;2.58;;;30.50;91.60;;;;;;5093391;28;20140;-82
2022/06/22 13:17:34;;;;;;;5.85;2.53;;;30.10;91.70;;;;;;5096542;28;20042;-80
2022/06/22 13:20:29;;;;;;;5.85;2.22;;;30.20;91.70;;;;;;5063325;28;20165;-81
2022/06/22 13:23:22;;;;;;;4.50;2.72;;;30.60;91.50;;;;;;5093290;28;20487;-80
2022/06/22 13:25:54;;;;;;;7.43;3.00;;;30.00;91.30;;;;;;5092561;28;20407;-81
2022/06/22 13:28:43;;;;;;;5.72;2.65;;;29.20;91.30;;;;;;5075849;28;20102;-81
2022/06/22 13:31:30;;;;;;;6.30;2.78;;;29.50;91.50;;;;;;5092564;28;20070;-81
2022/06/22 13:34:12;;;;;;;6.50;2.70;;;30.00;91.60;;;;;;5076293;28;20039;-81
2022/06/22 13:37:04;;;;;;;4.45;2.85;;;30.30;92.00;;;;;;5092019;28;20457;-81
2022/06/22 13:39:38;;;;;;;5.03;2.40;;;30.50;91.30;;;;;;5092281;28;20044;-81
2022/06/22 13:42:16;;;;;;;6.18;3.15;;;30.60;91.20;;;;;;5093166;28;20568;-81
2022/06/22 13:45:19;;;;;;;6.20;3.42;;;30.10;92.10;;;;;;5092729;28;20495;-80
2022/06/22 13:48:06;;;;;;;6.35;3.05;;;30.10;93.10;;;;;;5092221;28;20054;-81
2022/06/22 13:50:45;;;;;;;6.10;2.92;;;29.50;91.60;;;;;;5092147;28;20036;-80
2022/06/22 13:53:54;;;;;;;5.75;2.50;;;29.00;91.40;;;;;;5092578;28;20348;-81
2022/06/22 13:56:44;;;;;;;6.25;4.00;;;29.10;92.40;;;;;;5092595;28;20050;-82
2022/06/22 13:59:22;;;;;;;7.50;4.40;;;29.00;93.70;;;;;;5079517;28;20600;-80
2022/06/22 14:02:02;;;;;;;8.18;3.58;;;29.00;93.90;;;;;;5092735;28;20429;-81
2022/06/22 14:04:36;;;;;;;9.32;4.32;;;29.60;94.20;;;;;;5094417;28;20040;-81
2022/06/22 14:07:16;;;;;;;7.75;3.85;;;29.30;93.90;;;;;;5092319;28;20044;-81
2022/06/22 14:10:06;;;;;;;6.45;3.20;;;29.20;93.80;;;;;;5091958;28;20062;-81